Time,TemperatureF,DewpointF,PressureIn,WindDirection,WindDirectionDegrees,WindSpeedMPH,WindSpeedGustMPH,Humidity,HourlyPrecipIn,Conditions,Clouds,dailyrainin,SoftwareType,DateUTC
2013-07-19 00:02:00,79.0,72.0,30.06,WSW,247,0.0,0.0,78,0.00,,,0.00,,2013-07-19 04:02:00,
2013-07-19 00:44:00,78.0,71.0,30.06,WSW,247,0.0,0.0,79,0.00,,,0.00,,2013-07-19 04:44:00,
2013-07-19 00:52:00,78.0,71.0,30.05,WSW,247,0.0,0.0,79,0.00,,,0.00,,2013-07-19 04:52:00,
2013-07-19 01:32:00,78.0,71.0,30.05,WSW,247,0.0,0.0,80,0.00,,,0.00,,2013-07-19 05:32:00,
2013-07-19 01:53:00,77.0,70.0,30.04,WSW,247,0.0,0.0,80,0.00,,,0.00,,2013-07-19 05:53:00,
2013-07-19 02:01:00,77.0,70.0,30.04,WSW,247,0.0,0.0,80,0.00,,,0.00,,2013-07-19 06:01:00,
2013-07-19 02:11:00,77.0,71.0,30.04,WSW,247,0.0,0.0,81,0.00,,,0.00,,2013-07-19 06:11:00,
2013-07-19 02:22:00,77.0,71.0,30.03,WSW,247,0.0,0.0,81,0.00,,,0.00,,2013-07-19 06:22:00,
2013-07-19 02:33:00,77.0,71.0,30.03,WSW,247,0.0,0.0,81,0.00,,,0.00,,2013-07-19 06:33:00,
2013-07-19 02:43:00,77.0,71.0,30.03,North,-999,-999.0,-999.0,81,0.00,,,0.00,,2013-07-19 06:43:00,
2013-07-19 02:52:00,77.0,71.0,30.03,North,-999,-999.0,-999.0,81,0.00,,,0.00,,2013-07-19 06:52:00,
2013-07-19 03:01:00,77.0,71.0,30.03,North,-999,-999.0,-999.0,81,0.00,,,0.00,,2013-07-19 07:01:00,
2013-07-19 03:12:00,77.0,71.0,30.03,North,-999,-999.0,-999.0,81,0.00,,,0.00,,2013-07-19 07:12:00,
2013-07-19 03:22:00,77.0,71.0,30.03,North,-999,-999.0,-999.0,81,0.00,,,0.00,,2013-07-19 07:22:00,
2013-07-19 07:43:00,74.0,70.0,30.00,SW,225,0.0,0.0,87,0.00,,,0.00,,2013-07-19 11:43:00,
2013-07-19 07:52:00,74.0,70.0,30.01,SW,225,0.0,0.0,87,0.00,,,0.00,,2013-07-19 11:52:00,
2013-07-19 08:12:00,74.0,70.0,30.00,North,-999,-999.0,-999.0,87,0.00,,,0.00,,2013-07-19 12:12:00,
2013-07-19 08:22:00,74.0,70.0,30.00,North,-999,-999.0,-999.0,87,0.00,,,0.00,,2013-07-19 12:22:00,
2013-07-19 08:33:00,74.0,70.0,30.00,North,-999,-999.0,-999.0,87,0.00,,,0.00,,2013-07-19 12:33:00,
2013-07-19 08:43:00,74.0,70.0,30.00,North,-999,-999.0,-999.0,87,0.00,,,0.00,,2013-07-19 12:43:00,
2013-07-19 12:22:00,82.0,72.0,30.00,North,-999,-999.0,-999.0,71,0.00,,,0.00,,2013-07-19 16:22:00,
2013-07-19 12:52:00,82.0,72.0,30.00,North,-999,-999.0,-999.0,71,0.00,,,0.00,,2013-07-19 16:52:00,
2013-07-19 13:02:00,82.0,72.0,30.00,North,-999,-999.0,-999.0,71,0.00,,,0.00,,2013-07-19 17:02:00,
2013-07-19 13:12:00,82.0,72.0,30.00,North,-999,-999.0,-999.0,71,0.00,,,0.00,,2013-07-19 17:12:00,
2013-07-19 14:01:00,82.0,70.0,29.97,West,270,3.0,3.0,68,0.00,,,0.00,,2013-07-19 18:01:00,
2013-07-19 15:42:00,85.0,71.0,29.92,NW,315,0.0,0.0,63,0.00,,,0.00,,2013-07-19 19:42:00,
2013-07-19 16:01:00,85.0,71.0,29.92,NW,315,0.0,0.0,63,0.00,,,0.00,,2013-07-19 20:01:00,
2013-07-19 16:11:00,85.0,71.0,29.92,NW,315,0.0,0.0,63,0.00,,,0.00,,2013-07-19 20:11:00,
2013-07-19 16:22:00,85.0,71.0,29.92,NW,315,0.0,0.0,63,0.00,,,0.00,,2013-07-19 20:22:00,
2013-07-19 16:33:00,85.0,71.0,29.92,NW,315,0.0,0.0,63,0.00,,,0.00,,2013-07-19 20:33:00,
2013-07-19 17:11:00,89.0,75.0,29.89,SSW,202,9.0,9.0,64,0.00,,,0.00,,2013-07-19 21:11:00,
2013-07-19 17:22:00,89.0,75.0,29.89,NE,45,1.0,9.0,64,0.00,,,0.00,,2013-07-19 21:22:00,
2013-07-19 17:32:00,89.0,75.0,29.89,WSW,247,3.0,3.0,64,0.00,,,0.00,,2013-07-19 21:32:00,
2013-07-19 17:42:00,89.0,75.0,29.89,North,0,0.0,3.0,64,0.00,,,0.00,,2013-07-19 21:42:00,
2013-07-19 17:52:00,89.0,75.0,29.88,NNW,337,0.0,0.0,64,0.00,,,0.00,,2013-07-19 21:52:00,
2013-07-19 18:01:00,89.0,75.0,29.88,NNW,337,0.0,0.0,64,0.00,,,0.00,,2013-07-19 22:01:00,
2013-07-19 18:11:00,89.0,75.0,29.88,NNW,337,0.0,0.0,64,0.00,,,0.00,,2013-07-19 22:11:00,
2013-07-19 18:21:00,89.0,75.0,29.87,SW,225,0.0,5.0,64,0.00,,,0.00,,2013-07-19 22:21:00,
2013-07-19 18:32:00,89.0,76.0,29.87,West,270,0.0,0.0,65,0.00,,,0.00,,2013-07-19 22:32:00,
2013-07-19 18:43:00,89.0,76.0,29.87,NNW,337,0.0,0.0,65,0.00,,,0.00,,2013-07-19 22:43:00,
2013-07-19 18:52:00,89.0,76.0,29.87,NNW,337,0.0,0.0,65,0.00,,,0.00,,2013-07-19 22:52:00,
2013-07-19 19:01:00,88.0,75.0,29.87,SE,135,0.0,0.0,65,0.00,,,0.00,,2013-07-19 23:01:00,
2013-07-19 19:21:00,88.0,75.0,29.87,WSW,247,3.0,3.0,65,0.00,,,0.00,,2013-07-19 23:21:00,
2013-07-19 19:43:00,88.0,75.0,29.87,WNW,292,0.0,6.0,66,0.00,,,0.00,,2013-07-19 23:43:00,
2013-07-19 19:52:00,87.0,75.0,29.87,SE,135,0.0,0.0,67,0.00,,,0.00,,2013-07-19 23:52:00,
2013-07-19 20:01:00,87.0,75.0,29.87,NW,315,0.0,0.0,67,0.00,,,0.00,,2013-07-20 00:01:00,
2013-07-19 20:11:00,87.0,75.0,29.87,WSW,247,0.0,0.0,68,0.00,,,0.00,,2013-07-20 00:11:00,
2013-07-19 20:22:00,87.0,75.0,29.87,ESE,112,0.0,0.0,68,0.00,,,0.00,,2013-07-20 00:22:00,
2013-07-19 20:32:00,87.0,75.0,29.87,SW,225,0.0,0.0,68,0.00,,,0.00,,2013-07-20 00:32:00,
2013-07-19 20:43:00,86.0,74.0,29.87,SSW,202,0.0,2.0,68,0.00,,,0.00,,2013-07-20 00:43:00,
2013-07-19 20:52:00,86.0,74.0,29.88,WSW,247,2.0,2.0,68,0.00,,,0.00,,2013-07-20 00:52:00,
2013-07-19 21:01:00,85.0,74.0,29.88,West,270,0.0,2.0,69,0.00,,,0.00,,2013-07-20 01:01:00,
2013-07-19 21:11:00,85.0,74.0,29.88,South,180,0.0,0.0,69,0.00,,,0.00,,2013-07-20 01:11:00,
2013-07-19 21:22:00,85.0,74.0,29.88,WSW,247,5.0,5.0,69,0.00,,,0.00,,2013-07-20 01:22:00,
2013-07-19 21:32:00,84.0,73.0,29.88,West,270,0.0,0.0,70,0.00,,,0.00,,2013-07-20 01:32:00,
2013-07-19 21:52:00,83.0,73.0,29.88,SW,225,0.0,0.0,71,0.00,,,0.00,,2013-07-20 01:52:00,
2013-07-19 22:02:00,83.0,73.0,29.88,West,270,0.0,3.0,71,0.00,,,0.00,,2013-07-20 02:02:00,
2013-07-19 22:11:00,83.0,73.0,29.88,West,270,0.0,3.0,71,0.00,,,0.00,,2013-07-20 02:11:00,
2013-07-19 22:33:00,82.0,72.0,29.88,SW,225,6.0,6.0,72,0.00,,,0.00,,2013-07-20 02:33:00,
2013-07-19 22:43:00,82.0,72.0,29.88,West,270,0.0,0.0,72,0.00,,,0.00,,2013-07-20 02:43:00,
2013-07-19 23:02:00,82.0,72.0,29.88,West,270,1.0,1.0,72,0.00,,,0.00,,2013-07-20 03:02:00,